North Vancouver, Canada
Current Conditions -  °F | °C
As of 6:07 PM on Tuesday 21 Oct 2014 (Local Time) from CYVR Reporting Station
Light Rain Light Rain  
Wind Chill: 57°   Ceiling: 6600
Heat Index: 57°   Visibility: 15mi
Dew Point: 52°   Wind: 18mph
Humidity: 82%   Direction: 140°SE
Pressure: 29.78"   Gusts: 26mph
Location:  49.32°N, 123.07°W
Report Text: CYVR 220107Z 14016G23KT 15SM -RA FEW020 SCT061 BKN066 OVC072 14/11 A2978 RMK SC1SC2AC4AC1 SLP084
Loading
Personal Weather Stations






























Interactive Weather Map
Tropical Storm Tracking
New forecast layout! Learn more

10-Day Weather Forecast

Advertisements
Track Severe Weather on mobile